Estación de Nogales
Ultimos registro cada 15 minutos 58
| N° | Estación | Fecha / Hora | Temperatura | Humedad | Lluvia | Velocidad | Dirección | Radiación | Presion |
| 58 | Nogales | 09-05-2026 14:15 | 23,1 | 29,7 | 0 | 0,7 | 208 | 618,1 | 982,8 |
| 57 | Nogales | 09-05-2026 14:00 | 22,7 | 28,4 | 0 | 0,7 | 240 | 641,9 | 983 |
| 56 | Nogales | 09-05-2026 13:45 | 22,4 | 33,4 | 0 | 1 | 213 | 663,1 | 983 |
| 55 | Nogales | 09-05-2026 13:30 | 23,1 | 34,2 | 0 | 0,3 | 139 | 675,6 | 983,1 |
| 54 | Nogales | 09-05-2026 13:15 | 22,4 | 36,9 | 0 | 0,3 | 190 | 685,6 | 983,3 |
| 53 | Nogales | 09-05-2026 13:00 | 20,4 | 41 | 0 | 1 | 237 | 693,1 | 983,5 |
| 52 | Nogales | 09-05-2026 12:45 | 20,5 | 42 | 0 | 0,3 | 168 | 694,4 | 983,7 |
| 51 | Nogales | 09-05-2026 12:30 | 20,4 | 43,1 | 0 | 0,7 | 195 | 694,4 | 983,9 |
| 50 | Nogales | 09-05-2026 12:15 | 20 | 43,9 | 0 | 0,7 | 171 | 693,1 | 984 |
| 49 | Nogales | 09-05-2026 12:00 | 18,6 | 48,9 | 0 | 0,7 | 206 | 680,6 | 984,3 |
| 48 | Nogales | 09-05-2026 11:45 | 17,9 | 48,8 | 0 | 1 | 195 | 671,9 | 984,4 |
| 47 | Nogales | 09-05-2026 11:30 | 18,1 | 52 | 0 | 0,3 | 209 | 656,9 | 984,5 |
| 46 | Nogales | 09-05-2026 11:15 | 17 | 56,1 | 0 | 0,7 | 190 | 631,9 | 984,7 |
| 45 | Nogales | 09-05-2026 11:00 | 16,1 | 60,8 | 0 | 1 | 170 | 606,9 | 985 |
| 44 | Nogales | 09-05-2026 10:45 | 15,9 | 63,2 | 0 | 0,7 | 185 | 583,1 | 984,9 |
| 43 | Nogales | 09-05-2026 10:30 | 14,9 | 63,6 | 0 | 0,3 | 181 | 546,9 | 985,1 |
| 42 | Nogales | 09-05-2026 10:15 | 14,7 | 67,1 | 0 | 0,3 | 37 | 509,4 | 985,4 |
| 41 | Nogales | 09-05-2026 10:00 | 14,7 | 73,1 | 0 | 0 | 44 | 468,1 | 985,7 |
| 40 | Nogales | 09-05-2026 09:45 | 12,9 | 79,7 | 0 | 0,7 | 45 | 425,6 | 985,7 |
| 39 | Nogales | 09-05-2026 09:30 | 11,2 | 86,1 | 0 | 0,7 | 18 | 380,6 | 985,8 |
| 38 | Nogales | 09-05-2026 09:15 | 9,9 | 93,4 | 0 | 0 | 17 | 331,9 | 985,9 |
| 37 | Nogales | 09-05-2026 09:00 | 8,1 | 95,6 | 0 | 0,7 | 39 | 285,6 | 985,9 |
| 36 | Nogales | 09-05-2026 08:45 | 6,5 | 96,2 | 0 | 0,3 | 25 | 241,9 | 985,9 |
| 35 | Nogales | 09-05-2026 08:30 | 4,8 | 96,3 | 0 | 0 | 347 | 194,4 | 985,6 |
| 34 | Nogales | 09-05-2026 08:15 | 2,2 | 96,7 | 0 | 0 | 347 | 20,6 | 985,4 |
| 33 | Nogales | 09-05-2026 08:00 | 1,6 | 96,4 | 0 | 0 | 347 | 14,4 | 985,5 |
| 32 | Nogales | 09-05-2026 07:45 | 2,1 | 96,1 | 0 | 0 | 347 | 9,4 | 985,4 |
| 31 | Nogales | 09-05-2026 07:30 | 1,6 | 96,4 | 0 | 0 | 347 | 4,4 | 985,2 |
| 30 | Nogales | 09-05-2026 07:15 | 2 | 96,5 | 0 | 0 | 347 | 0,6 | 985,3 |
| 29 | Nogales | 09-05-2026 07:00 | 1,5 | 96,2 | 0 | 0 | 347 | 0,6 | 985,2 |
| 28 | Nogales | 09-05-2026 06:45 | 1,6 | 96 | 0 | 0 | 347 | 0,6 | 985 |
| 27 | Nogales | 09-05-2026 06:30 | 2 | 95,5 | 0 | 0 | 347 | 0,6 | 985 |
| 26 | Nogales | 09-05-2026 06:15 | 2,4 | 95,9 | 0 | 0 | 347 | 0,6 | 984,9 |
| 25 | Nogales | 09-05-2026 06:00 | 2,6 | 96,1 | 0 | 0 | 348 | 0,6 | 984,6 |
| 24 | Nogales | 09-05-2026 05:45 | 2,2 | 95,6 | 0 | 0 | 348 | 0,6 | 984,6 |
| 23 | Nogales | 09-05-2026 05:30 | 2,7 | 95,5 | 0 | 0 | 348 | 0,6 | 984,4 |
| 22 | Nogales | 09-05-2026 05:15 | 3,1 | 95,7 | 0 | 0 | 348 | 0,6 | 984,3 |
| 21 | Nogales | 09-05-2026 05:00 | 3,1 | 95,4 | 0 | 0 | 348 | 0,6 | 984,4 |
| 20 | Nogales | 09-05-2026 04:45 | 2,7 | 95 | 0 | 0 | 348 | 0,6 | 984,4 |
| 19 | Nogales | 09-05-2026 04:30 | 2,6 | 95,3 | 0 | 0 | 348 | 0,6 | 984,6 |
| 18 | Nogales | 09-05-2026 04:15 | 2,5 | 95,1 | 0 | 0 | 348 | 0,6 | 984,5 |
| 17 | Nogales | 09-05-2026 04:00 | 2,6 | 94,7 | 0 | 0 | 348 | 0,6 | 984,6 |
| 16 | Nogales | 09-05-2026 03:45 | 2,8 | 94,8 | 0 | 0 | 348 | 0,6 | 984,5 |
| 15 | Nogales | 09-05-2026 03:30 | 2,7 | 94,3 | 0 | 0 | 348 | 0,6 | 984,6 |
| 14 | Nogales | 09-05-2026 03:15 | 2,9 | 94,3 | 0 | 0 | 348 | 0,6 | 984,7 |
| 13 | Nogales | 09-05-2026 03:00 | 2,7 | 94 | 0 | 0 | 348 | 0,6 | 985 |
| 12 | Nogales | 09-05-2026 02:45 | 3 | 93,9 | 0 | 0 | 348 | 0,6 | 985,1 |
| 11 | Nogales | 09-05-2026 02:30 | 3,3 | 93,6 | 0 | 0 | 348 | 0,6 | 985,1 |
| 10 | Nogales | 09-05-2026 02:15 | 3,6 | 93,6 | 0 | 0 | 348 | 0,6 | 985,2 |
| 9 | Nogales | 09-05-2026 02:00 | 4 | 93,5 | 0 | 0 | 348 | 0,6 | 985,6 |
| 8 | Nogales | 09-05-2026 01:45 | 4 | 93,2 | 0 | 0 | 347 | 0,6 | 985,5 |
| 7 | Nogales | 09-05-2026 01:30 | 3,8 | 92,9 | 0 | 0 | 347 | 0,6 | 985,6 |
| 6 | Nogales | 09-05-2026 01:15 | 4,1 | 92,8 | 0 | 0 | 347 | 0,6 | 985,7 |
| 5 | Nogales | 09-05-2026 01:00 | 4,1 | 92,7 | 0 | 0 | 347 | 0,6 | 985,9 |
| 4 | Nogales | 09-05-2026 00:45 | 4,1 | 92,2 | 0 | 0 | 347 | 0,6 | 986 |
| 3 | Nogales | 09-05-2026 00:30 | 4,8 | 91,9 | 0 | 0 | 347 | 0,6 | 986,1 |
| 2 | Nogales | 09-05-2026 00:15 | 4,3 | 91,6 | 0 | 0 | 347 | 0,6 | 986,2 |
| 1 | Nogales | 09-05-2026 00:00 | 4,8 | 91,2 | 0 | 0 | 347 | 0,6 | 986,4 |